Time;durP1;ratioP1;P1;durP2;ratioP2;P2;SDS_P1;SDS_P2;PMS_P1;PMS_P2;Temp;Humidity;BMP_temperature;BMP_pressure;BME280_temperature;BME280_humidity;BME280_pressure;Samples;Min_cycle;Max_cycle;Signal;HPM_P1;HPM_P2
2023/05/18 00:00:01;;;;;;;10.90;9.10;;;;;;;16.88;62.21;100749.31;109095;1250;66242;-53
2023/05/18 00:02:30;;;;;;;11.60;9.10;;;;;;;16.87;62.23;100749.25;109089;1252;58736;-53
2023/05/18 00:05:00;;;;;;;11.30;9.30;;;;;;;16.84;62.13;100750.73;109143;1254;61497;-54
2023/05/18 00:07:32;;;;;;;11.50;8.90;;;;;;;16.79;61.95;100755.13;109015;1250;67135;-53
2023/05/18 00:10:00;;;;;;;12.50;9.90;;;;;;;16.73;61.92;100752.75;109186;1253;62756;-54
2023/05/18 00:12:27;;;;;;;11.80;8.70;;;;;;;16.66;61.91;100754.30;109089;1251;65962;-54
2023/05/18 00:14:54;;;;;;;12.60;8.50;;;;;;;16.65;62.01;100756.23;109081;1250;58998;-54
2023/05/18 00:17:22;;;;;;;11.30;8.20;;;;;;;16.68;61.97;100763.90;109033;1250;58888;-54
2023/05/18 00:19:49;;;;;;;10.60;8.50;;;;;;;16.67;62.07;100761.15;109103;1250;66317;-54
2023/05/18 00:23:15;;;;;;;10.40;8.40;;;;;;;16.61;62.03;100757.80;109085;1250;62910;-53
2023/05/18 00:28:56;;;;;;;13.60;10.00;;;;;;;16.46;62.42;100765.71;108983;1250;58468;-54
2023/05/18 00:31:24;;;;;;;10.90;8.80;;;;;;;16.39;62.47;100765.17;109129;1250;58566;-54
2023/05/18 00:33:51;;;;;;;11.30;9.60;;;;;;;16.38;62.46;100762.64;109042;1250;67319;-53
2023/05/18 00:36:18;;;;;;;10.80;8.80;;;;;;;16.39;62.32;100757.02;109057;1256;62707;-55
2023/05/18 00:38:45;;;;;;;11.60;8.80;;;;;;;16.36;62.25;100756.39;109089;1250;66088;-54
2023/05/18 00:41:12;;;;;;;11.20;9.90;;;;;;;16.30;62.27;100753.78;109203;1252;59027;-54
2023/05/18 00:43:40;;;;;;;13.80;10.90;;;;;;;16.26;62.48;100755.63;108949;1250;59308;-53
2023/05/18 00:46:07;;;;;;;14.50;11.00;;;;;;;16.23;62.40;100754.19;109051;1250;66171;-53
2023/05/18 00:48:34;;;;;;;12.10;9.90;;;;;;;16.16;62.25;100750.73;109104;1251;62402;-53
2023/05/18 00:51:01;;;;;;;12.40;9.60;;;;;;;16.09;62.40;100747.52;108992;1253;66189;-54
2023/05/18 00:53:53;;;;;;;13.90;10.80;;;;;;;16.07;62.37;100745.83;108822;1253;58649;-54
2023/05/18 00:56:22;;;;;;;12.80;10.00;;;;;;;16.07;62.22;100749.09;109120;1252;58388;-53
2023/05/18 00:58:56;;;;;;;12.70;10.30;;;;;;;16.04;62.16;100749.09;109074;1256;66885;-54
2023/05/18 01:01:33;;;;;;;12.90;9.30;;;;;;;16.01;62.11;100756.77;108897;1253;63737;-54
2023/05/18 01:04:03;;;;;;;13.90;10.90;;;;;;;15.98;61.93;100757.07;109064;1253;65173;-53
2023/05/18 01:06:34;;;;;;;13.30;11.10;;;;;;;15.94;61.88;100759.60;108507;1253;58495;-53
2023/05/18 01:09:03;;;;;;;12.90;10.60;;;;;;;15.90;61.79;100759.35;109034;1253;59452;-54
2023/05/18 01:11:51;;;;;;;14.10;10.70;;;;;;;15.83;61.70;100756.95;109132;1251;66159;-53
2023/05/18 01:14:48;;;;;;;10.30;9.10;;;;;;;15.77;61.87;100759.08;108928;1256;64261;-54
2023/05/18 01:17:32;;;;;;;11.70;9.20;;;;;;;15.78;61.97;100765.02;109006;1252;66359;-53
2023/05/18 01:20:08;;;;;;;12.30;9.90;;;;;;;15.81;62.15;100765.63;108993;1254;58243;-54
2023/05/18 01:22:44;;;;;;;15.70;10.70;;;;;;;15.84;62.12;100766.91;109153;1253;58375;-54
2023/05/18 01:25:39;;;;;;;14.60;10.60;;;;;;;15.84;61.88;100766.95;108991;1251;67386;-53
2023/05/18 01:28:08;;;;;;;12.50;10.30;;;;;;;15.82;61.73;100771.80;108954;1252;63998;-53
2023/05/18 01:31:13;;;;;;;13.40;11.00;;;;;;;15.78;61.77;100774.60;109023;1253;66310;-54
2023/05/18 01:33:40;;;;;;;15.90;11.40;;;;;;;15.72;61.74;100771.73;108975;1251;60401;-54
2023/05/18 01:36:07;;;;;;;17.60;10.50;;;;;;;15.68;61.80;100776.91;109046;1257;59246;-54
2023/05/18 01:38:34;;;;;;;13.70;10.50;;;;;;;15.69;61.96;100776.12;108888;1250;66511;-54
2023/05/18 01:41:51;;;;;;;12.30;10.20;;;;;;;15.73;61.95;100778.04;108975;1253;64237;-54
2023/05/18 01:44:26;;;;;;;14.80;10.30;;;;;;;15.74;62.14;100777.98;109082;1253;64984;-54
2023/05/18 01:47:16;;;;;;;14.70;10.50;;;;;;;15.71;62.41;100778.93;108770;1255;58343;-54
2023/05/18 01:50:07;;;;;;;12.70;10.70;;;;;;;15.67;62.48;100778.64;108735;1253;59978;-54
2023/05/18 01:52:39;;;;;;;11.80;10.30;;;;;;;15.62;62.61;100777.32;109019;1252;65345;-56
2023/05/18 01:55:07;;;;;;;12.30;9.90;;;;;;;15.58;62.59;100777.00;108863;1253;64164;-54
2023/05/18 01:57:35;;;;;;;10.80;8.30;;;;;;;15.54;62.63;100782.50;108723;1254;64340;-52
2023/05/18 02:00:06;;;;;;;11.30;8.70;;;;;;;15.54;62.60;100782.30;108997;1254;59928;-53
2023/05/18 02:03:42;;;;;;;13.00;8.60;;;;;;;15.60;62.54;100787.74;109068;1256;59327;-53
2023/05/18 02:06:16;;;;;;;10.90;8.90;;;;;;;15.63;62.32;100789.96;109059;1256;67416;-52
2023/05/18 02:08:45;;;;;;;11.80;9.50;;;;;;;15.62;62.25;100791.25;108691;1252;62801;-53
2023/05/18 02:11:12;;;;;;;12.00;9.10;;;;;;;15.59;62.18;100791.77;108858;1254;64752;-52
2023/05/18 02:13:39;;;;;;;9.90;8.50;;;;;;;15.53;62.05;100791.13;109087;1253;59230;-52
2023/05/18 02:16:07;;;;;;;10.70;8.80;;;;;;;15.46;62.06;100792.85;109065;1253;58537;-53
2023/05/18 02:18:35;;;;;;;11.60;9.40;;;;;;;15.37;62.33;100796.27;108999;1252;67512;-53
2023/05/18 02:21:03;;;;;;;10.40;8.90;;;;;;;15.31;62.38;100797.42;109111;1256;62680;-52
2023/05/18 02:23:48;;;;;;;10.50;8.50;;;;;;;15.29;62.43;100797.37;109057;1254;64874;-52
2023/05/18 02:26:15;;;;;;;9.80;8.40;;;;;;;15.31;62.47;100798.23;108836;1255;59607;-52
2023/05/18 02:28:51;;;;;;;12.00;9.60;;;;;;;15.33;62.55;100802.69;109060;1254;58850;-53
2023/05/18 02:31:18;;;;;;;12.70;9.70;;;;;;;15.31;62.41;100808.30;108833;1254;66818;-54
2023/05/18 02:33:45;;;;;;;12.00;9.30;;;;;;;15.28;62.32;100808.98;109023;1257;63438;-52
2023/05/18 02:36:12;;;;;;;11.50;10.20;;;;;;;15.23;62.23;100812.81;108997;1256;66350;-54
2023/05/18 02:38:42;;;;;;;11.10;9.90;;;;;;;15.16;62.20;100817.85;108884;1259;60176;-52
2023/05/18 02:41:10;;;;;;;13.50;9.90;;;;;;;15.10;62.25;100815.42;108927;1254;59783;-52
2023/05/18 02:43:37;;;;;;;11.60;10.10;;;;;;;15.06;62.23;100816.13;108922;1254;67103;-53
2023/05/18 02:46:05;;;;;;;11.80;10.20;;;;;;;15.04;62.17;100818.09;108897;1251;62668;-53
2023/05/18 02:48:35;;;;;;;12.30;10.60;;;;;;;15.05;62.17;100818.30;109020;1255;66416;-54
2023/05/18 02:51:06;;;;;;;13.20;11.80;;;;;;;15.04;62.20;100817.19;108535;1253;59506;-53
2023/05/18 02:53:33;;;;;;;11.40;10.10;;;;;;;15.01;62.24;100812.54;108454;1256;58703;-53
2023/05/18 02:56:43;;;;;;;11.50;9.70;;;;;;;14.99;62.50;100811.98;109003;1254;67398;-53
2023/05/18 02:59:31;;;;;;;12.80;10.00;;;;;;;14.98;62.99;100812.73;108825;1251;64137;-53
2023/05/18 03:02:23;;;;;;;13.50;10.40;;;;;;;14.99;63.34;100813.92;108933;1253;66162;-53
2023/05/18 03:04:53;;;;;;;14.30;10.30;;;;;;;15.05;63.40;100814.06;108864;1256;58789;-54
2023/05/18 03:07:20;;;;;;;12.40;9.40;;;;;;;15.12;63.36;100813.08;108914;1251;58569;-54
2023/05/18 03:09:47;;;;;;;13.80;10.70;;;;;;;15.19;63.54;100814.70;108922;1254;68261;-54
2023/05/18 03:12:20;;;;;;;11.30;10.00;;;;;;;15.28;63.61;100814.81;109049;1253;63934;-53
2023/05/18 03:14:47;;;;;;;11.30;9.80;;;;;;;15.33;63.71;100817.67;108934;1253;67787;-53
2023/05/18 03:17:15;;;;;;;12.10;10.80;;;;;;;15.38;63.50;100816.19;108853;1255;58217;-53
2023/05/18 03:19:42;;;;;;;11.70;10.40;;;;;;;15.41;63.46;100822.01;108983;1254;59708;-54
2023/05/18 03:22:09;;;;;;;12.20;9.90;;;;;;;15.46;63.60;100824.09;108827;1259;66213;-53
2023/05/18 03:24:45;;;;;;;13.00;9.90;;;;;;;15.51;63.56;100825.19;109020;1253;63653;-54
2023/05/18 03:27:15;;;;;;;12.20;9.90;;;;;;;15.60;63.49;100824.54;108875;1253;64989;-53
2023/05/18 03:29:43;;;;;;;15.60;10.60;;;;;;;15.66;63.54;100829.43;108950;1254;58459;-53
2023/05/18 03:32:11;;;;;;;12.90;10.40;;;;;;;15.70;63.66;100835.83;108911;1259;59429;-53
2023/05/18 03:34:38;;;;;;;12.60;11.30;;;;;;;15.83;63.51;100843.95;108904;1258;67328;-54
2023/05/18 03:37:05;;;;;;;11.30;10.10;;;;;;;15.90;63.36;100844.08;108959;1254;62697;-54
2023/05/18 03:39:33;;;;;;;12.90;10.90;;;;;;;15.93;63.37;100839.34;108909;1256;66692;-54
2023/05/18 03:42:00;;;;;;;12.50;10.50;;;;;;;15.98;63.20;100840.30;108986;1251;58517;-54
2023/05/18 03:44:27;;;;;;;12.80;10.00;;;;;;;16.06;63.09;100842.86;108907;1254;59031;-54
2023/05/18 03:46:54;;;;;;;12.70;9.50;;;;;;;16.16;62.97;100846.49;108919;1254;67356;-53
2023/05/18 03:49:21;;;;;;;16.30;10.10;;;;;;;16.25;62.95;100845.96;109003;1257;62361;-53
2023/05/18 03:52:33;;;;;;;11.80;9.70;;;;;;;16.33;62.96;100850.16;108873;1254;64958;-53
2023/05/18 03:55:00;;;;;;;12.70;11.20;;;;;;;16.43;63.01;100851.30;108856;1253;59376;-52
2023/05/18 03:57:27;;;;;;;13.30;11.80;;;;;;;16.50;62.89;100853.84;108752;1254;293537;-53
2023/05/18 04:01:52;;;;;;;12.40;11.10;;;;;;;16.41;63.53;100854.73;102044;1291;599708;-52
2023/05/18 04:04:22;;;;;;;12.40;11.00;;;;;;;16.66;62.86;100852.07;107975;1266;57756;-53
2023/05/18 04:06:52;;;;;;;11.40;9.10;;;;;;;16.78;62.53;100855.23;108049;1266;58688;-53
2023/05/18 04:09:20;;;;;;;11.50;9.60;;;;;;;16.87;62.34;100854.82;107981;1266;74808;-52
2023/05/18 04:11:47;;;;;;;10.30;8.70;;;;;;;16.96;62.19;100858.25;108023;1267;62755;-52
2023/05/18 04:14:15;;;;;;;13.10;9.00;;;;;;;17.03;62.11;100854.16;107854;1269;199813;-53
2023/05/18 04:16:43;;;;;;;10.50;8.40;;;;;;;17.12;61.68;100856.95;108212;1264;57839;-53
2023/05/18 04:19:10;;;;;;;10.50;7.90;;;;;;;17.19;61.49;100857.91;108229;1264;59267;-53
2023/05/18 04:21:37;;;;;;;13.20;8.30;;;;;;;17.23;61.11;100864.86;108614;1256;64358;-52
2023/05/18 04:24:05;;;;;;;9.00;7.40;;;;;;;17.27;61.06;100865.72;108505;1257;64515;-53
2023/05/18 04:26:35;;;;;;;11.50;7.50;;;;;;;17.37;60.65;100869.95;108547;1263;65136;-53
2023/05/18 04:29:02;;;;;;;9.90;7.20;;;;;;;17.48;60.39;100871.63;108634;1262;57989;-52
2023/05/18 04:31:29;;;;;;;10.70;7.50;;;;;;;17.57;60.05;100875.73;108566;1260;58376;-53
2023/05/18 04:33:57;;;;;;;10.10;7.30;;;;;;;17.63;59.61;100875.78;108518;1256;65544;-52
2023/05/18 04:36:29;;;;;;;9.20;7.10;;;;;;;17.70;59.03;100876.82;108703;1257;65908;-52
2023/05/18 04:38:59;;;;;;;13.50;8.20;;;;;;;17.77;58.48;100881.21;108601;1261;64868;-53
2023/05/18 04:41:27;;;;;;;9.70;7.90;;;;;;;17.86;58.05;100878.19;108657;1258;58833;-53
2023/05/18 04:47:53;;;;;;;8.70;7.00;;;;;;;17.99;56.80;100881.35;108618;1262;66523;-53
2023/05/18 04:50:22;;;;;;;12.80;8.20;;;;;;;18.05;56.17;100880.78;108360;1262;64219;-52
2023/05/18 04:52:50;;;;;;;9.10;7.30;;;;;;;18.07;55.74;100877.40;108640;1256;65084;-54
2023/05/18 04:55:24;;;;;;;9.90;6.90;;;;;;;18.08;55.35;100877.64;108584;1262;57590;-53
2023/05/18 04:57:56;;;;;;;10.70;6.60;;;;;;;18.09;55.11;100880.67;108590;1258;59883;-53
2023/05/18 05:01:00;;;;;;;12.30;7.40;;;;;;;18.12;55.02;100882.15;108694;1257;66661;-54
2023/05/18 05:03:27;;;;;;;9.60;6.30;;;;;;;18.17;54.88;100880.88;108651;1258;63742;-53
2023/05/18 05:05:54;;;;;;;8.90;6.50;;;;;;;18.27;54.74;100884.50;108594;1258;66182;-53
2023/05/18 05:08:23;;;;;;;10.40;6.80;;;;;;;18.40;54.67;100886.66;108609;1260;58094;-53
2023/05/18 05:10:50;;;;;;;12.60;7.00;;;;;;;18.50;54.42;100886.48;108607;1257;57724;-54
2023/05/18 05:13:17;;;;;;;8.90;6.40;;;;;;;18.58;54.33;100887.26;108626;1257;66528;-54
2023/05/18 05:15:43;;;;;;;8.50;6.10;;;;;;;18.66;53.97;100889.77;108646;1258;64012;-54
2023/05/18 05:18:10;;;;;;;12.50;6.60;;;;;;;18.74;53.47;100892.13;108606;1258;66165;-54
2023/05/18 05:20:48;;;;;;;10.90;6.80;;;;;;;18.79;53.37;100895.50;108550;1263;58085;-54
2023/05/18 05:23:15;;;;;;;8.90;6.60;;;;;;;18.84;53.39;100892.39;108621;1257;59224;-54
2023/05/18 05:25:50;;;;;;;8.40;6.10;;;;;;;18.89;53.17;100890.98;108573;1258;65183;-54
2023/05/18 05:28:20;;;;;;;9.00;6.60;;;;;;;18.93;52.97;100895.23;108537;1260;62365;-53
2023/05/18 05:30:47;;;;;;;11.10;6.50;;;;;;;18.97;52.93;100893.62;108520;1260;66284;-53
2023/05/18 05:33:17;;;;;;;10.70;6.60;;;;;;;19.00;52.82;100894.96;108459;1260;58882;-53
2023/05/18 05:35:44;;;;;;;8.90;6.00;;;;;;;19.05;52.63;100888.66;108526;1260;58017;-53
2023/05/18 05:38:11;;;;;;;9.40;6.40;;;;;;;19.07;52.76;100889.56;108492;1261;66353;-53
2023/05/18 05:40:38;;;;;;;10.20;6.30;;;;;;;19.14;52.63;100891.80;108499;1261;64028;-53
2023/05/18 05:43:05;;;;;;;11.00;6.70;;;;;;;19.20;52.61;100894.50;108542;1263;65212;-53
2023/05/18 05:45:33;;;;;;;7.90;5.40;;;;;;;19.28;52.52;100894.90;108580;1260;59860;-54
2023/05/18 05:48:03;;;;;;;8.00;6.00;;;;;;;19.35;51.90;100891.98;108573;1259;59142;-52
2023/05/18 05:50:31;;;;;;;9.90;6.10;;;;;;;19.43;51.33;100897.32;108477;1264;66949;-53
2023/05/18 05:52:59;;;;;;;10.40;5.60;;;;;;;19.52;51.26;100901.41;108519;1264;63964;-53
2023/05/18 05:55:29;;;;;;;7.60;5.50;;;;;;;19.59;51.03;100904.20;108464;1263;66438;-52
2023/05/18 05:57:56;;;;;;;9.60;5.50;;;;;;;19.68;50.50;100908.57;108456;1259;60436;-52
2023/05/18 06:00:24;;;;;;;8.80;5.20;;;;;;;19.76;50.42;100906.95;108539;1263;57607;-53
2023/05/18 06:02:52;;;;;;;11.00;4.90;;;;;;;19.84;50.04;100905.16;108603;1256;68784;-53
2023/05/18 06:05:27;;;;;;;7.70;4.80;;;;;;;19.93;49.89;100907.27;108537;1257;63769;-53
2023/05/18 06:07:55;;;;;;;6.00;4.70;;;;;;;20.01;49.68;100905.20;108551;1257;67685;-53
2023/05/18 06:10:22;;;;;;;8.70;5.40;;;;;;;20.11;49.53;100904.48;108495;1260;58175;-53
2023/05/18 06:12:49;;;;;;;8.70;4.90;;;;;;;20.19;48.97;100908.31;108571;1257;57741;-52
2023/05/18 06:15:17;;;;;;;10.90;4.90;;;;;;;20.28;48.54;100910.18;108563;1257;65369;-53
2023/05/18 06:17:45;;;;;;;9.30;4.40;;;;;;;20.35;47.84;100911.55;108591;1260;64060;-54
2023/05/18 06:20:13;;;;;;;7.30;4.70;;;;;;;20.42;47.94;100912.36;108512;1258;76188;-55
2023/05/18 06:22:40;;;;;;;7.80;4.40;;;;;;;20.50;48.20;100911.07;108517;1258;59971;-55
2023/05/18 06:25:28;;;;;;;7.60;4.40;;;;;;;20.60;47.71;100909.48;108580;1260;57951;-53
2023/05/18 06:28:24;;;;;;;8.80;4.50;;;;;;;20.71;47.07;100911.77;108179;1257;77110;-50
2023/05/18 06:30:59;;;;;;;7.90;4.10;;;;;;;20.79;46.90;100912.17;108592;1256;64044;-52
2023/05/18 06:33:29;;;;;;;7.30;4.60;;;;;;;20.86;46.75;100915.52;108520;1257;63851;-53
2023/05/18 06:35:57;;;;;;;8.40;4.20;;;;;;;20.94;46.54;100911.43;108442;1260;59163;-53
2023/05/18 06:38:24;;;;;;;6.90;4.30;;;;;;;21.04;46.20;100914.08;108520;1260;58415;-51
2023/05/18 06:40:51;;;;;;;7.20;4.30;;;;;;;21.11;45.92;100917.34;108638;1256;66500;-51
2023/05/18 06:43:18;;;;;;;6.60;3.80;;;;;;;21.17;45.75;100914.31;108609;1257;65668;-52
2023/05/18 06:45:55;;;;;;;7.10;3.70;;;;;;;21.24;45.20;100914.94;108562;1257;66228;-52
2023/05/18 06:48:48;;;;;;;6.30;3.50;;;;;;;21.33;44.54;100911.45;108443;1260;57893;-49
2023/05/18 06:51:15;;;;;;;7.90;3.70;;;;;;;21.41;44.30;100916.76;108594;1257;57429;-51
2023/05/18 06:53:43;;;;;;;5.40;3.40;;;;;;;21.49;44.04;100916.88;108613;1257;66465;-55
2023/05/18 06:56:11;;;;;;;7.50;3.80;;;;;;;21.57;43.97;100916.30;108595;1260;63610;-54
2023/05/18 06:58:40;;;;;;;7.30;3.20;;;;;;;21.65;43.71;100916.79;108574;1257;65837;-54
2023/05/18 07:01:08;;;;;;;8.30;3.90;;;;;;;21.74;43.46;100914.80;108587;1257;57798;-54
2023/05/18 07:03:36;;;;;;;5.60;3.20;;;;;;;21.81;43.00;100909.46;108649;1256;57746;-54
2023/05/18 07:06:03;;;;;;;10.20;3.10;;;;;;;21.89;42.41;100912.50;108684;1257;65481;-54
2023/05/18 07:08:53;;;;;;;6.10;2.70;;;;;;;21.97;41.92;100909.16;108714;1256;63748;-54
2023/05/18 07:11:51;;;;;;;5.20;2.60;;;;;;;22.09;42.12;100910.63;108682;1258;65028;-55
2023/05/18 07:14:37;;;;;;;7.10;3.00;;;;;;;22.21;41.23;100910.33;108731;1256;57850;-54
2023/05/18 07:17:37;;;;;;;5.80;2.50;;;;;;;22.37;40.60;100910.10;108174;1257;57756;-54
2023/05/18 07:20:13;;;;;;;5.40;2.60;;;;;;;22.50;40.23;100911.08;108582;1255;65622;-55
2023/05/18 07:22:40;;;;;;;5.90;2.90;;;;;;;22.61;39.92;100911.67;108709;1257;63965;-54
2023/05/18 07:25:08;;;;;;;7.20;2.60;;;;;;;22.72;38.79;100913.55;108674;1257;77870;-57
2023/05/18 07:27:35;;;;;;;5.60;2.70;;;;;;;22.81;38.91;100914.69;108608;1260;58232;-55
2023/05/18 07:30:02;;;;;;;5.50;3.00;;;;;;;22.89;38.69;100918.07;108577;1257;57831;-54
2023/05/18 07:32:29;;;;;;;7.30;3.00;;;;;;;22.96;38.35;100919.70;108717;1256;66184;-55
2023/05/18 07:34:56;;;;;;;6.00;3.00;;;;;;;23.04;37.95;100919.91;108721;1256;64207;-55
2023/05/18 07:37:23;;;;;;;7.20;3.30;;;;;;;23.12;37.87;100923.95;108623;1257;65016;-55
2023/05/18 07:39:51;;;;;;;7.50;3.20;;;;;;;23.24;37.83;100923.41;108705;1257;57510;-55
2023/05/18 07:42:18;;;;;;;6.10;3.10;;;;;;;23.34;37.72;100921.93;108718;1257;57672;-55
2023/05/18 07:44:45;;;;;;;7.00;2.80;;;;;;;23.44;37.66;100916.56;108690;1257;65641;-55
2023/05/18 07:47:12;;;;;;;5.80;2.90;;;;;;;23.53;36.32;100919.28;108646;1258;64041;-55
2023/05/18 07:49:39;;;;;;;9.20;3.40;;;;;;;23.62;35.61;100923.06;108725;1257;66455;-55
2023/05/18 07:52:32;;;;;;;10.40;3.30;;;;;;;23.71;35.77;100925.84;108704;1257;57940;-55
2023/05/18 07:55:02;;;;;;;6.70;2.90;;;;;;;23.81;35.41;100929.11;108512;1267;59482;-55
2023/05/18 07:57:29;;;;;;;6.90;2.90;;;;;;;23.89;35.08;100930.70;108178;1256;65647;-55
2023/05/18 07:59:56;;;;;;;7.10;3.20;;;;;;;23.98;34.40;100928.41;108664;1256;63153;-55
2023/05/18 08:02:24;;;;;;;5.40;3.10;;;;;;;24.05;34.12;100929.40;108697;1256;64778;-55
2023/05/18 08:04:52;;;;;;;7.00;3.20;;;;;;;24.13;34.12;100929.52;108700;1261;57581;-55
2023/05/18 08:07:20;;;;;;;7.30;3.80;;;;;;;24.17;34.10;100931.40;108683;1257;58135;-56
2023/05/18 08:09:47;;;;;;;6.60;3.60;;;;;;;24.21;33.97;100929.67;108681;1257;66279;-55
2023/05/18 08:12:14;;;;;;;6.20;3.10;;;;;;;24.30;34.11;100931.88;108647;1257;63616;-55
2023/05/18 08:14:41;;;;;;;5.90;3.40;;;;;;;24.36;33.81;100927.93;108710;1257;74838;-56
2023/05/18 08:17:08;;;;;;;7.90;3.60;;;;;;;24.41;34.14;100925.67;108680;1257;58275;-55
2023/05/18 08:19:35;;;;;;;7.70;3.30;;;;;;;24.52;33.88;100924.19;108639;1257;58475;-57
2023/05/18 08:22:04;;;;;;;6.20;3.50;;;;;;;24.61;32.80;100921.76;108679;1257;67313;-55
2023/05/18 08:24:32;;;;;;;10.30;4.10;;;;;;;24.69;32.57;100925.59;108665;1262;63842;-55
2023/05/18 08:27:00;;;;;;;6.80;3.50;;;;;;;24.76;32.62;100926.30;108716;1256;64967;-55
2023/05/18 08:29:26;;;;;;;7.60;3.90;;;;;;;24.82;32.61;100924.42;108638;1256;59189;-55
2023/05/18 08:31:53;;;;;;;8.60;4.60;;;;;;;24.89;32.78;100923.36;108792;1255;58493;-55
2023/05/18 08:34:46;;;;;;;7.20;4.80;;;;;;;24.97;32.73;100921.55;108617;1262;67104;-55
2023/05/18 08:37:13;;;;;;;8.50;5.00;;;;;;;25.05;32.30;100915.23;108709;1257;63833;-56
2023/05/18 08:39:40;;;;;;;7.20;4.00;;;;;;;25.09;31.77;100912.25;108614;1256;66139;-55
2023/05/18 08:42:30;;;;;;;7.60;4.60;;;;;;;25.12;31.67;100911.05;108644;1257;60310;-55
2023/05/18 08:45:31;;;;;;;7.20;4.80;;;;;;;25.18;31.63;100911.50;108651;1256;58477;-56
2023/05/18 08:48:00;;;;;;;7.80;5.50;;;;;;;25.24;31.69;100913.04;108685;1260;67082;-55
2023/05/18 08:50:27;;;;;;;10.40;5.40;;;;;;;25.27;31.54;100909.84;108662;1256;62411;-55
2023/05/18 08:52:54;;;;;;;8.20;5.60;;;;;;;25.28;31.52;100912.33;108612;1256;66168;-54
2023/05/18 08:55:22;;;;;;;8.10;5.50;;;;;;;25.31;31.32;100908.76;108662;1256;60321;-54
2023/05/18 08:57:57;;;;;;;9.40;6.10;;;;;;;25.36;31.26;100909.16;108690;1256;58934;-54
2023/05/18 09:00:24;;;;;;;11.40;6.10;;;;;;;25.37;31.10;100907.51;108625;1257;66101;-54
2023/05/18 09:02:51;;;;;;;9.40;6.10;;;;;;;25.48;30.46;100905.84;108592;1256;63531;-54
2023/05/18 09:05:18;;;;;;;11.50;7.30;;;;;;;25.59;30.50;100902.68;108658;1258;65854;-55
2023/05/18 09:07:45;;;;;;;11.00;6.90;;;;;;;25.63;30.34;100901.14;108594;1259;58666;-55
2023/05/18 09:10:12;;;;;;;9.70;7.40;;;;;;;25.67;30.05;100896.36;108634;1256;58402;-55
2023/05/18 09:13:29;;;;;;;12.60;8.00;;;;;;;25.70;29.70;100893.58;108664;1256;66201;-54
2023/05/18 09:15:56;;;;;;;10.30;8.70;;;;;;;25.76;30.05;100897.18;108616;1256;62566;-55
2023/05/18 09:18:23;;;;;;;11.00;9.20;;;;;;;25.84;29.84;100897.12;108684;1256;73661;-55
2023/05/18 09:20:54;;;;;;;10.40;8.30;;;;;;;25.90;29.38;100896.65;108640;1258;60312;-56
2023/05/18 09:23:20;;;;;;;10.70;8.30;;;;;;;25.97;29.57;100895.45;108659;1256;59066;-54
2023/05/18 09:25:50;;;;;;;13.70;6.70;;;;;;;26.06;29.44;100891.84;108704;1256;66253;-54
2023/05/18 09:28:37;;;;;;;9.50;6.00;;;;;;;26.17;28.52;100886.66;108604;1256;63896;-55
2023/05/18 09:31:06;;;;;;;8.40;6.30;;;;;;;26.29;27.16;100890.02;108703;1256;65924;-54
2023/05/18 09:33:35;;;;;;;8.90;6.40;;;;;;;26.37;26.48;100889.23;108600;1259;58994;-59
2023/05/18 09:36:04;;;;;;;10.60;6.00;;;;;;;26.43;26.92;100884.39;108658;1257;58925;-55
2023/05/18 09:38:35;;;;;;;8.50;6.30;;;;;;;26.51;26.98;100886.14;108676;1256;66135;-55
2023/05/18 09:41:02;;;;;;;8.60;6.10;;;;;;;26.60;27.74;100884.84;108666;1256;62716;-55
2023/05/18 09:43:29;;;;;;;11.50;5.60;;;;;;;26.66;27.42;100886.90;108647;1256;66347;-55
2023/05/18 09:45:56;;;;;;;7.90;5.70;;;;;;;26.74;27.65;100878.63;108574;1257;64215;-55
2023/05/18 09:48:23;;;;;;;9.10;5.30;;;;;;;26.80;27.64;100877.21;108683;1256;58587;-55
2023/05/18 09:50:51;;;;;;;9.00;6.10;;;;;;;26.87;28.26;100877.33;108529;1256;67122;-55
2023/05/18 09:53:18;;;;;;;8.20;5.70;;;;;;;26.95;27.92;100876.66;108670;1256;65640;-56
2023/05/18 09:55:46;;;;;;;9.50;5.30;;;;;;;27.01;27.30;100875.52;108608;1263;66409;-55
2023/05/18 09:58:13;;;;;;;7.20;5.10;;;;;;;27.07;26.36;100868.91;108693;1256;59149;-55
2023/05/18 10:00:48;;;;;;;6.90;5.10;;;;;;;27.10;26.58;100868.44;108667;1256;58695;-55
2023/05/18 10:03:19;;;;;;;8.20;5.30;;;;;;;27.10;26.22;100866.41;108662;1256;67158;-55
2023/05/18 10:05:46;;;;;;;8.00;5.10;;;;;;;27.09;26.48;100866.11;108660;1257;66309;-55
2023/05/18 10:08:14;;;;;;;6.80;5.00;;;;;;;27.11;25.99;100862.99;108617;1256;66845;-54
2023/05/18 10:10:43;;;;;;;6.70;4.90;;;;;;;27.10;25.45;100863.61;108713;1260;58826;-55
2023/05/18 10:13:18;;;;;;;7.30;5.40;;;;;;;27.16;25.43;100864.02;108703;1256;58491;-55
2023/05/18 10:15:47;;;;;;;7.80;5.30;;;;;;;27.23;26.04;100862.83;108662;1256;67351;-55
2023/05/18 10:18:17;;;;;;;7.40;5.00;;;;;;;27.32;25.99;100863.08;108752;1256;63573;-56
2023/05/18 10:20:44;;;;;;;10.60;5.70;;;;;;;27.39;25.74;100856.39;108644;1255;65994;-56
2023/05/18 10:23:11;;;;;;;12.50;5.60;;;;;;;27.47;26.02;100857.70;108731;1258;61319;-55
2023/05/18 10:25:38;;;;;;;8.20;5.50;;;;;;;27.52;26.95;100859.10;108769;1255;58239;-55
2023/05/18 10:28:05;;;;;;;8.80;5.40;;;;;;;27.56;26.78;100855.52;108666;1256;67311;-55
2023/05/18 10:30:33;;;;;;;10.80;5.60;;;;;;;27.60;26.94;100853.70;108769;1257;63752;-56
2023/05/18 10:33:00;;;;;;;9.00;6.20;;;;;;;27.66;26.89;100852.76;108802;1255;66248;-56
2023/05/18 10:35:27;;;;;;;7.30;5.20;;;;;;;27.72;26.40;100852.67;108760;1256;58199;-55
2023/05/18 10:37:54;;;;;;;7.60;5.60;;;;;;;27.78;25.81;100853.98;108775;1256;58852;-55
2023/05/18 10:40:21;;;;;;;8.60;5.70;;;;;;;27.85;26.47;100848.30;108629;1256;66887;-56
2023/05/18 10:42:49;;;;;;;8.40;5.50;;;;;;;27.91;26.61;100843.33;108695;1256;64933;-55
2023/05/18 10:45:16;;;;;;;8.90;6.30;;;;;;;27.91;26.04;100843.86;108726;1257;66439;-55
2023/05/18 10:47:43;;;;;;;9.70;5.60;;;;;;;27.95;25.81;100840.13;108752;1256;58262;-55
2023/05/18 10:50:10;;;;;;;11.10;6.20;;;;;;;28.05;26.26;100843.59;108782;1256;59610;-57
2023/05/18 10:52:37;;;;;;;8.70;6.20;;;;;;;28.11;26.13;100841.55;108866;1256;66514;-56
2023/05/18 10:55:05;;;;;;;8.70;5.60;;;;;;;28.16;25.96;100841.08;108890;1255;62952;-56
2023/05/18 10:57:36;;;;;;;8.70;6.50;;;;;;;28.20;25.72;100840.48;108784;1256;65072;-55
2023/05/18 11:00:06;;;;;;;10.90;7.00;;;;;;;28.25;25.64;100837.03;108782;1256;59259;-55
2023/05/18 11:02:33;;;;;;;8.50;6.10;;;;;;;28.32;25.65;100837.34;108714;1256;59927;-56
2023/05/18 11:05:04;;;;;;;8.00;6.20;;;;;;;28.30;25.38;100835.93;108669;1256;67315;-57
2023/05/18 11:07:32;;;;;;;8.60;6.40;;;;;;;28.26;26.08;100836.15;108742;1258;66643;-54
2023/05/18 11:10:00;;;;;;;10.70;6.00;;;;;;;28.27;24.99;100833.10;108641;1258;66500;-55
2023/05/18 11:12:27;;;;;;;8.10;6.10;;;;;;;28.31;25.22;100833.80;108725;1258;58917;-56
2023/05/18 11:14:56;;;;;;;8.90;6.50;;;;;;;28.38;25.16;100833.70;108659;1256;58283;-55
2023/05/18 11:17:24;;;;;;;7.40;5.70;;;;;;;28.50;24.22;100832.24;108766;1260;67668;-55
2023/05/18 11:20:00;;;;;;;10.40;6.40;;;;;;;28.57;24.56;100826.82;108733;1256;62457;-55
2023/05/18 11:22:57;;;;;;;10.40;7.00;;;;;;;28.59;24.20;100822.25;108746;1257;66537;-55
2023/05/18 11:25:30;;;;;;;9.50;6.60;;;;;;;28.65;23.92;100822.48;108609;1256;58388;-55
2023/05/18 11:28:00;;;;;;;8.60;6.30;;;;;;;28.74;24.52;100823.55;108696;1256;59073;-55
2023/05/18 11:30:28;;;;;;;7.90;6.00;;;;;;;28.85;24.01;100825.92;108719;1256;67541;-54
2023/05/18 11:33:08;;;;;;;7.70;5.60;;;;;;;28.93;23.32;100826.41;108762;1256;62633;-54
2023/05/18 11:35:54;;;;;;;10.20;6.50;;;;;;;29.01;23.52;100821.98;108738;1256;66352;-54
2023/05/18 11:38:22;;;;;;;8.80;7.00;;;;;;;29.08;23.27;100820.86;108955;1257;58400;-55
2023/05/18 11:40:58;;;;;;;8.40;5.90;;;;;;;29.14;23.76;100817.84;108861;1256;59189;-55